sensor_id;sensor_type;location;lat;lon;timestamp;temperature;humidity
57026;DHT22;43961;52.940;6.834;2023-09-30T00:01:55;10.90;99.90
57026;DHT22;43961;52.940;6.834;2023-09-30T00:04:20;10.90;99.90
57026;DHT22;43961;52.940;6.834;2023-09-30T00:06:46;10.90;99.90
57026;DHT22;43961;52.940;6.834;2023-09-30T00:09:12;10.90;99.90
57026;DHT22;43961;52.940;6.834;2023-09-30T00:11:39;10.90;99.90
57026;DHT22;43961;52.940;6.834;2023-09-30T00:14:04;10.90;99.90
57026;DHT22;43961;52.940;6.834;2023-09-30T00:16:30;10.90;99.90
57026;DHT22;43961;52.940;6.834;2023-09-30T00:18:56;10.90;99.90
57026;DHT22;43961;52.940;6.834;2023-09-30T00:21:24;10.90;99.90
57026;DHT22;43961;52.940;6.834;2023-09-30T00:23:50;10.90;99.90
57026;DHT22;43961;52.940;6.834;2023-09-30T00:26:16;10.90;99.90
57026;DHT22;43961;52.940;6.834;2023-09-30T00:28:41;10.90;99.90
57026;DHT22;43961;52.940;6.834;2023-09-30T00:31:07;10.90;99.90
57026;DHT22;43961;52.940;6.834;2023-09-30T00:33:36;10.90;99.90
57026;DHT22;43961;52.940;6.834;2023-09-30T00:36:07;10.90;99.90
57026;DHT22;43961;52.940;6.834;2023-09-30T00:38:33;10.90;99.90
57026;DHT22;43961;52.940;6.834;2023-09-30T00:40:59;10.90;99.90
57026;DHT22;43961;52.940;6.834;2023-09-30T00:43:24;10.90;99.90
57026;DHT22;43961;52.940;6.834;2023-09-30T00:46:02;10.90;99.90
57026;DHT22;43961;52.940;6.834;2023-09-30T00:48:34;10.90;99.90
57026;DHT22;43961;52.940;6.834;2023-09-30T00:51:00;10.90;99.90
57026;DHT22;43961;52.940;6.834;2023-09-30T00:53:27;10.90;99.90
57026;DHT22;43961;52.940;6.834;2023-09-30T00:55:55;10.90;99.90
57026;DHT22;43961;52.940;6.834;2023-09-30T00:58:22;10.90;99.90
57026;DHT22;43961;52.940;6.834;2023-09-30T01:00:52;10.90;99.90
57026;DHT22;43961;52.940;6.834;2023-09-30T01:03:18;10.90;99.90
57026;DHT22;43961;52.940;6.834;2023-09-30T01:05:45;10.90;99.90
57026;DHT22;43961;52.940;6.834;2023-09-30T01:08:11;10.90;99.90
57026;DHT22;43961;52.940;6.834;2023-09-30T01:10:37;10.90;99.90
57026;DHT22;43961;52.940;6.834;2023-09-30T01:13:02;10.90;99.90
57026;DHT22;43961;52.940;6.834;2023-09-30T01:15:31;10.90;99.90
57026;DHT22;43961;52.940;6.834;2023-09-30T01:17:57;10.90;99.90
57026;DHT22;43961;52.940;6.834;2023-09-30T01:20:23;10.90;99.90
57026;DHT22;43961;52.940;6.834;2023-09-30T01:22:49;10.90;99.90
57026;DHT22;43961;52.940;6.834;2023-09-30T01:25:15;10.90;99.90
57026;DHT22;43961;52.940;6.834;2023-09-30T01:27:40;10.90;99.90
57026;DHT22;43961;52.940;6.834;2023-09-30T01:30:06;10.90;99.90
57026;DHT22;43961;52.940;6.834;2023-09-30T01:32:37;10.90;99.90
57026;DHT22;43961;52.940;6.834;2023-09-30T01:35:06;10.90;99.90
57026;DHT22;43961;52.940;6.834;2023-09-30T01:37:32;10.90;99.90
57026;DHT22;43961;52.940;6.834;2023-09-30T01:39:57;10.90;99.90
57026;DHT22;43961;52.940;6.834;2023-09-30T01:42:23;11.00;99.90
57026;DHT22;43961;52.940;6.834;2023-09-30T01:44:48;10.90;99.90
57026;DHT22;43961;52.940;6.834;2023-09-30T01:47:14;11.00;99.90
57026;DHT22;43961;52.940;6.834;2023-09-30T01:49:40;10.90;99.90
57026;DHT22;43961;52.940;6.834;2023-09-30T01:52:05;10.90;99.90
57026;DHT22;43961;52.940;6.834;2023-09-30T01:54:31;11.00;99.90
57026;DHT22;43961;52.940;6.834;2023-09-30T01:56:57;10.90;99.90
57026;DHT22;43961;52.940;6.834;2023-09-30T01:59:24;11.00;99.90
57026;DHT22;43961;52.940;6.834;2023-09-30T02:01:50;11.00;99.90
57026;DHT22;43961;52.940;6.834;2023-09-30T02:04:16;10.90;99.90
57026;DHT22;43961;52.940;6.834;2023-09-30T02:06:42;11.00;99.90
57026;DHT22;43961;52.940;6.834;2023-09-30T02:09:08;11.00;99.90
57026;DHT22;43961;52.940;6.834;2023-09-30T02:11:35;11.00;99.90
57026;DHT22;43961;52.940;6.834;2023-09-30T02:14:02;11.00;99.90
57026;DHT22;43961;52.940;6.834;2023-09-30T02:16:28;11.00;99.90
57026;DHT22;43961;52.940;6.834;2023-09-30T02:18:55;10.90;99.90
57026;DHT22;43961;52.940;6.834;2023-09-30T02:21:20;11.00;99.90
57026;DHT22;43961;52.940;6.834;2023-09-30T02:23:47;11.00;99.90
57026;DHT22;43961;52.940;6.834;2023-09-30T02:26:16;11.00;99.90
57026;DHT22;43961;52.940;6.834;2023-09-30T02:28:43;11.00;99.90
57026;DHT22;43961;52.940;6.834;2023-09-30T02:31:09;11.00;99.90
57026;DHT22;43961;52.940;6.834;2023-09-30T02:33:34;11.00;99.90
57026;DHT22;43961;52.940;6.834;2023-09-30T02:36:07;11.00;99.90
57026;DHT22;43961;52.940;6.834;2023-09-30T02:38:32;11.00;99.90
57026;DHT22;43961;52.940;6.834;2023-09-30T02:40:58;11.00;99.90
57026;DHT22;43961;52.940;6.834;2023-09-30T02:43:24;11.10;99.90
57026;DHT22;43961;52.940;6.834;2023-09-30T02:45:49;11.00;99.90
57026;DHT22;43961;52.940;6.834;2023-09-30T02:48:15;11.00;99.90
57026;DHT22;43961;52.940;6.834;2023-09-30T02:50:44;11.00;99.90
57026;DHT22;43961;52.940;6.834;2023-09-30T02:53:11;11.00;99.90
57026;DHT22;43961;52.940;6.834;2023-09-30T02:55:38;11.00;99.90
57026;DHT22;43961;52.940;6.834;2023-09-30T02:58:04;11.00;99.90
57026;DHT22;43961;52.940;6.834;2023-09-30T03:00:30;11.00;99.90
57026;DHT22;43961;52.940;6.834;2023-09-30T03:03:00;11.00;99.90
57026;DHT22;43961;52.940;6.834;2023-09-30T03:05:26;11.00;99.90
57026;DHT22;43961;52.940;6.834;2023-09-30T03:07:53;11.10;99.90
57026;DHT22;43961;52.940;6.834;2023-09-30T03:10:20;11.00;99.90
57026;DHT22;43961;52.940;6.834;2023-09-30T03:12:50;11.10;99.90
57026;DHT22;43961;52.940;6.834;2023-09-30T03:15:16;11.10;99.90
57026;DHT22;43961;52.940;6.834;2023-09-30T03:17:42;11.10;99.90
57026;DHT22;43961;52.940;6.834;2023-09-30T03:20:11;11.10;99.90
57026;DHT22;43961;52.940;6.834;2023-09-30T03:22:41;11.10;99.90
57026;DHT22;43961;52.940;6.834;2023-09-30T03:25:11;11.10;99.90
57026;DHT22;43961;52.940;6.834;2023-09-30T03:27:37;11.10;99.90
57026;DHT22;43961;52.940;6.834;2023-09-30T03:30:08;11.20;99.90
57026;DHT22;43961;52.940;6.834;2023-09-30T03:32:34;11.20;99.90
57026;DHT22;43961;52.940;6.834;2023-09-30T03:35:07;11.20;99.90
57026;DHT22;43961;52.940;6.834;2023-09-30T03:37:33;11.20;99.90
57026;DHT22;43961;52.940;6.834;2023-09-30T03:40:00;11.20;99.90
57026;DHT22;43961;52.940;6.834;2023-09-30T03:42:31;11.20;99.90
57026;DHT22;43961;52.940;6.834;2023-09-30T03:44:57;11.20;99.90
57026;DHT22;43961;52.940;6.834;2023-09-30T03:47:23;11.20;99.90
57026;DHT22;43961;52.940;6.834;2023-09-30T03:49:49;11.20;99.90
57026;DHT22;43961;52.940;6.834;2023-09-30T03:52:14;11.30;99.90
57026;DHT22;43961;52.940;6.834;2023-09-30T03:54:40;11.20;99.90
57026;DHT22;43961;52.940;6.834;2023-09-30T03:57:07;11.20;99.90
57026;DHT22;43961;52.940;6.834;2023-09-30T03:59:32;11.30;99.90
57026;DHT22;43961;52.940;6.834;2023-09-30T04:01:59;11.30;99.90
57026;DHT22;43961;52.940;6.834;2023-09-30T04:04:25;11.30;99.90
57026;DHT22;43961;52.940;6.834;2023-09-30T04:06:51;11.30;99.90
57026;DHT22;43961;52.940;6.834;2023-09-30T04:09:17;11.30;99.90
57026;DHT22;43961;52.940;6.834;2023-09-30T04:11:43;11.30;99.90
57026;DHT22;43961;52.940;6.834;2023-09-30T04:14:09;11.30;99.90
57026;DHT22;43961;52.940;6.834;2023-09-30T04:16:35;11.30;99.90
57026;DHT22;43961;52.940;6.834;2023-09-30T04:19:03;11.30;99.90
57026;DHT22;43961;52.940;6.834;2023-09-30T04:21:29;11.30;99.90
57026;DHT22;43961;52.940;6.834;2023-09-30T04:23:56;11.30;99.90
57026;DHT22;43961;52.940;6.834;2023-09-30T04:26:22;11.30;99.90
57026;DHT22;43961;52.940;6.834;2023-09-30T04:28:47;11.30;99.90
57026;DHT22;43961;52.940;6.834;2023-09-30T04:31:13;11.30;99.90
57026;DHT22;43961;52.940;6.834;2023-09-30T04:33:40;11.20;99.90
57026;DHT22;43961;52.940;6.834;2023-09-30T04:36:08;11.20;99.90
57026;DHT22;43961;52.940;6.834;2023-09-30T04:38:35;11.20;99.90
57026;DHT22;43961;52.940;6.834;2023-09-30T04:41:03;11.20;99.90
57026;DHT22;43961;52.940;6.834;2023-09-30T04:43:29;11.20;99.90
57026;DHT22;43961;52.940;6.834;2023-09-30T04:45:54;11.20;99.90
57026;DHT22;43961;52.940;6.834;2023-09-30T04:48:23;11.20;99.90
57026;DHT22;43961;52.940;6.834;2023-09-30T04:50:49;11.20;99.90
57026;DHT22;43961;52.940;6.834;2023-09-30T04:53:14;11.20;99.90
57026;DHT22;43961;52.940;6.834;2023-09-30T04:55:43;11.20;99.90
57026;DHT22;43961;52.940;6.834;2023-09-30T04:58:09;11.20;99.90
57026;DHT22;43961;52.940;6.834;2023-09-30T05:00:34;11.10;99.90
57026;DHT22;43961;52.940;6.834;2023-09-30T05:03:00;11.10;99.90
57026;DHT22;43961;52.940;6.834;2023-09-30T05:05:26;11.10;99.90
57026;DHT22;43961;52.940;6.834;2023-09-30T05:07:52;11.10;99.90
57026;DHT22;43961;52.940;6.834;2023-09-30T05:10:18;11.10;99.90
57026;DHT22;43961;52.940;6.834;2023-09-30T05:12:45;11.10;99.90
57026;DHT22;43961;52.940;6.834;2023-09-30T05:15:14;11.00;99.90
57026;DHT22;43961;52.940;6.834;2023-09-30T05:17:42;11.10;99.90
57026;DHT22;43961;52.940;6.834;2023-09-30T05:20:09;11.00;99.90
57026;DHT22;43961;52.940;6.834;2023-09-30T05:22:37;11.00;99.90
57026;DHT22;43961;52.940;6.834;2023-09-30T05:25:04;11.00;99.90
57026;DHT22;43961;52.940;6.834;2023-09-30T05:27:30;11.00;99.90
57026;DHT22;43961;52.940;6.834;2023-09-30T05:29:56;11.00;99.90
57026;DHT22;43961;52.940;6.834;2023-09-30T05:32:22;10.90;99.90
57026;DHT22;43961;52.940;6.834;2023-09-30T05:34:47;10.90;99.90
57026;DHT22;43961;52.940;6.834;2023-09-30T05:37:13;10.90;99.90
57026;DHT22;43961;52.940;6.834;2023-09-30T05:39:39;11.00;99.90
57026;DHT22;43961;52.940;6.834;2023-09-30T05:42:06;11.00;99.90
57026;DHT22;43961;52.940;6.834;2023-09-30T05:44:32;10.90;99.90
57026;DHT22;43961;52.940;6.834;2023-09-30T05:46:59;11.00;99.90
57026;DHT22;43961;52.940;6.834;2023-09-30T05:49:25;10.90;99.90
57026;DHT22;43961;52.940;6.834;2023-09-30T05:51:51;11.00;99.90
57026;DHT22;43961;52.940;6.834;2023-09-30T05:54:17;11.00;99.90
57026;DHT22;43961;52.940;6.834;2023-09-30T05:56:42;11.00;99.90
57026;DHT22;43961;52.940;6.834;2023-09-30T05:59:09;11.00;99.90
57026;DHT22;43961;52.940;6.834;2023-09-30T06:01:35;11.00;99.90
57026;DHT22;43961;52.940;6.834;2023-09-30T06:04:02;11.00;99.90
57026;DHT22;43961;52.940;6.834;2023-09-30T06:06:28;11.00;99.90
57026;DHT22;43961;52.940;6.834;2023-09-30T06:08:57;11.10;99.90
57026;DHT22;43961;52.940;6.834;2023-09-30T06:11:25;11.10;99.90
57026;DHT22;43961;52.940;6.834;2023-09-30T06:13:57;11.10;99.90
57026;DHT22;43961;52.940;6.834;2023-09-30T06:16:27;11.10;99.90
57026;DHT22;43961;52.940;6.834;2023-09-30T06:18:53;11.10;99.90
57026;DHT22;43961;52.940;6.834;2023-09-30T06:21:24;11.10;99.90
57026;DHT22;43961;52.940;6.834;2023-09-30T06:23:50;11.10;99.90
57026;DHT22;43961;52.940;6.834;2023-09-30T06:26:18;11.10;99.90
57026;DHT22;43961;52.940;6.834;2023-09-30T06:28:44;11.10;99.90
57026;DHT22;43961;52.940;6.834;2023-09-30T06:31:10;11.20;99.90
57026;DHT22;43961;52.940;6.834;2023-09-30T06:33:37;11.20;99.90
57026;DHT22;43961;52.940;6.834;2023-09-30T06:36:13;11.20;99.90
57026;DHT22;43961;52.940;6.834;2023-09-30T06:38:43;11.20;99.90
57026;DHT22;43961;52.940;6.834;2023-09-30T06:41:09;11.30;99.90
57026;DHT22;43961;52.940;6.834;2023-09-30T06:43:40;11.30;99.90
57026;DHT22;43961;52.940;6.834;2023-09-30T06:46:07;11.30;99.90
57026;DHT22;43961;52.940;6.834;2023-09-30T06:48:37;11.40;99.90
57026;DHT22;43961;52.940;6.834;2023-09-30T06:51:05;11.50;99.90
57026;DHT22;43961;52.940;6.834;2023-09-30T06:53:31;11.50;99.90
57026;DHT22;43961;52.940;6.834;2023-09-30T06:55:57;11.60;99.90
57026;DHT22;43961;52.940;6.834;2023-09-30T06:58:22;11.60;99.90
57026;DHT22;43961;52.940;6.834;2023-09-30T07:00:52;11.60;99.90
57026;DHT22;43961;52.940;6.834;2023-09-30T07:03:19;11.70;99.90
57026;DHT22;43961;52.940;6.834;2023-09-30T07:05:45;11.70;99.90
57026;DHT22;43961;52.940;6.834;2023-09-30T07:08:16;11.70;99.90
57026;DHT22;43961;52.940;6.834;2023-09-30T07:10:42;11.80;99.90
57026;DHT22;43961;52.940;6.834;2023-09-30T07:13:07;11.80;99.90
57026;DHT22;43961;52.940;6.834;2023-09-30T07:15:33;11.80;99.90
57026;DHT22;43961;52.940;6.834;2023-09-30T07:17:59;11.90;99.90
57026;DHT22;43961;52.940;6.834;2023-09-30T07:20:25;11.90;99.90
57026;DHT22;43961;52.940;6.834;2023-09-30T07:22:51;12.00;99.90
57026;DHT22;43961;52.940;6.834;2023-09-30T07:25:18;12.00;99.90
57026;DHT22;43961;52.940;6.834;2023-09-30T07:27:44;12.10;99.90
57026;DHT22;43961;52.940;6.834;2023-09-30T07:30:13;12.10;99.90
57026;DHT22;43961;52.940;6.834;2023-09-30T07:32:43;12.20;99.90
57026;DHT22;43961;52.940;6.834;2023-09-30T07:35:11;12.30;99.90
57026;DHT22;43961;52.940;6.834;2023-09-30T07:37:37;12.30;99.90
57026;DHT22;43961;52.940;6.834;2023-09-30T07:40:03;12.40;99.90
57026;DHT22;43961;52.940;6.834;2023-09-30T07:42:30;12.40;99.90
57026;DHT22;43961;52.940;6.834;2023-09-30T07:44:56;12.50;99.90
57026;DHT22;43961;52.940;6.834;2023-09-30T07:47:21;12.60;99.90
57026;DHT22;43961;52.940;6.834;2023-09-30T07:49:47;12.60;99.90
57026;DHT22;43961;52.940;6.834;2023-09-30T07:52:13;12.70;99.90
57026;DHT22;43961;52.940;6.834;2023-09-30T07:54:38;12.80;99.90
57026;DHT22;43961;52.940;6.834;2023-09-30T07:57:04;12.90;99.90
57026;DHT22;43961;52.940;6.834;2023-09-30T07:59:30;13.00;99.90
57026;DHT22;43961;52.940;6.834;2023-09-30T08:01:55;13.20;99.90
57026;DHT22;43961;52.940;6.834;2023-09-30T08:04:22;13.30;99.90
57026;DHT22;43961;52.940;6.834;2023-09-30T08:06:49;13.40;99.90
57026;DHT22;43961;52.940;6.834;2023-09-30T08:09:15;13.50;99.90
57026;DHT22;43961;52.940;6.834;2023-09-30T08:11:41;13.60;99.90
57026;DHT22;43961;52.940;6.834;2023-09-30T08:14:06;13.70;99.90
57026;DHT22;43961;52.940;6.834;2023-09-30T08:16:34;13.80;99.90
57026;DHT22;43961;52.940;6.834;2023-09-30T08:19:00;14.00;99.90
57026;DHT22;43961;52.940;6.834;2023-09-30T08:21:26;14.10;99.90
57026;DHT22;43961;52.940;6.834;2023-09-30T08:23:52;14.20;99.90
57026;DHT22;43961;52.940;6.834;2023-09-30T08:26:17;14.30;99.90
57026;DHT22;43961;52.940;6.834;2023-09-30T08:28:43;14.40;99.90
57026;DHT22;43961;52.940;6.834;2023-09-30T08:31:09;14.60;99.90
57026;DHT22;43961;52.940;6.834;2023-09-30T08:33:34;14.70;99.90
57026;DHT22;43961;52.940;6.834;2023-09-30T08:36:05;14.80;99.90
57026;DHT22;43961;52.940;6.834;2023-09-30T08:38:39;15.00;99.90
57026;DHT22;43961;52.940;6.834;2023-09-30T08:41:06;15.10;99.90
57026;DHT22;43961;52.940;6.834;2023-09-30T08:43:38;15.20;99.90
57026;DHT22;43961;52.940;6.834;2023-09-30T08:46:04;15.40;99.90
57026;DHT22;43961;52.940;6.834;2023-09-30T08:48:32;15.50;99.90
57026;DHT22;43961;52.940;6.834;2023-09-30T08:50:59;15.70;99.90
57026;DHT22;43961;52.940;6.834;2023-09-30T08:53:25;15.90;99.90
57026;DHT22;43961;52.940;6.834;2023-09-30T08:55:55;16.00;99.90
57026;DHT22;43961;52.940;6.834;2023-09-30T08:58:27;16.20;99.90
57026;DHT22;43961;52.940;6.834;2023-09-30T09:00:53;16.40;99.90
57026;DHT22;43961;52.940;6.834;2023-09-30T09:03:19;16.50;99.90
57026;DHT22;43961;52.940;6.834;2023-09-30T09:05:55;16.70;99.90
57026;DHT22;43961;52.940;6.834;2023-09-30T09:08:22;16.80;99.90
57026;DHT22;43961;52.940;6.834;2023-09-30T09:11:00;17.10;99.90
57026;DHT22;43961;52.940;6.834;2023-09-30T09:13:48;17.20;99.90
57026;DHT22;43961;52.940;6.834;2023-09-30T09:16:16;17.40;99.90
57026;DHT22;43961;52.940;6.834;2023-09-30T09:18:43;17.50;99.90
57026;DHT22;43961;52.940;6.834;2023-09-30T09:21:14;17.70;99.90
57026;DHT22;43961;52.940;6.834;2023-09-30T09:26:06;18.00;99.90
57026;DHT22;43961;52.940;6.834;2023-09-30T09:28:36;18.20;99.90
57026;DHT22;43961;52.940;6.834;2023-09-30T09:31:19;18.30;99.90
57026;DHT22;43961;52.940;6.834;2023-09-30T09:33:46;18.50;99.90
57026;DHT22;43961;52.940;6.834;2023-09-30T09:36:11;18.60;99.90
57026;DHT22;43961;52.940;6.834;2023-09-30T09:38:45;18.70;99.90
57026;DHT22;43961;52.940;6.834;2023-09-30T09:41:11;18.90;99.90
57026;DHT22;43961;52.940;6.834;2023-09-30T09:43:37;19.00;99.90
57026;DHT22;43961;52.940;6.834;2023-09-30T09:46:08;19.00;99.90
57026;DHT22;43961;52.940;6.834;2023-09-30T09:48:37;19.20;99.90
57026;DHT22;43961;52.940;6.834;2023-09-30T09:51:04;19.20;99.90
57026;DHT22;43961;52.940;6.834;2023-09-30T09:53:36;19.30;99.90
57026;DHT22;43961;52.940;6.834;2023-09-30T09:56:03;19.40;99.90
57026;DHT22;43961;52.940;6.834;2023-09-30T09:58:33;19.50;99.90
57026;DHT22;43961;52.940;6.834;2023-09-30T10:01:01;19.60;99.90
57026;DHT22;43961;52.940;6.834;2023-09-30T10:03:28;19.70;99.90
57026;DHT22;43961;52.940;6.834;2023-09-30T10:05:54;19.80;99.90
57026;DHT22;43961;52.940;6.834;2023-09-30T10:08:21;19.80;99.90
57026;DHT22;43961;52.940;6.834;2023-09-30T10:10:53;19.90;99.90
57026;DHT22;43961;52.940;6.834;2023-09-30T10:13:55;20.00;99.90
57026;DHT22;43961;52.940;6.834;2023-09-30T10:19:13;20.20;99.90
57026;DHT22;43961;52.940;6.834;2023-09-30T10:21:40;20.30;99.90
57026;DHT22;43961;52.940;6.834;2023-09-30T10:35:19;20.70;99.90
57026;DHT22;43961;52.940;6.834;2023-09-30T10:37:45;20.80;99.90
57026;DHT22;43961;52.940;6.834;2023-09-30T10:40:28;21.00;99.90
57026;DHT22;43961;52.940;6.834;2023-09-30T10:42:54;21.10;99.90
57026;DHT22;43961;52.940;6.834;2023-09-30T10:48:55;21.20;99.90
57026;DHT22;43961;52.940;6.834;2023-09-30T10:51:16;21.20;99.90
57026;DHT22;43961;52.940;6.834;2023-09-30T10:53:51;21.20;99.90
57026;DHT22;43961;52.940;6.834;2023-09-30T10:56:20;21.10;99.90
57026;DHT22;43961;52.940;6.834;2023-09-30T10:58:48;20.90;99.90
57026;DHT22;43961;52.940;6.834;2023-09-30T11:01:17;20.90;99.90
57026;DHT22;43961;52.940;6.834;2023-09-30T11:03:45;20.90;99.90
57026;DHT22;43961;52.940;6.834;2023-09-30T11:06:15;21.00;99.90
57026;DHT22;43961;52.940;6.834;2023-09-30T11:08:55;21.00;99.90
57026;DHT22;43961;52.940;6.834;2023-09-30T11:16:50;21.30;99.90
57026;DHT22;43961;52.940;6.834;2023-09-30T11:19:16;21.10;99.90
57026;DHT22;43961;52.940;6.834;2023-09-30T11:21:42;20.90;99.90
57026;DHT22;43961;52.940;6.834;2023-09-30T11:24:13;20.80;99.90
57026;DHT22;43961;52.940;6.834;2023-09-30T11:26:39;20.70;99.90
57026;DHT22;43961;52.940;6.834;2023-09-30T11:29:11;20.80;99.90
57026;DHT22;43961;52.940;6.834;2023-09-30T11:31:41;20.80;99.90
57026;DHT22;43961;52.940;6.834;2023-09-30T11:34:08;20.90;99.90
57026;DHT22;43961;52.940;6.834;2023-09-30T11:36:35;20.90;99.90
57026;DHT22;43961;52.940;6.834;2023-09-30T11:39:01;21.10;99.90
57026;DHT22;43961;52.940;6.834;2023-09-30T11:41:39;21.20;99.90
57026;DHT22;43961;52.940;6.834;2023-09-30T11:44:07;21.20;99.90
57026;DHT22;43961;52.940;6.834;2023-09-30T11:52:02;21.60;99.90
57026;DHT22;43961;52.940;6.834;2023-09-30T11:54:32;21.70;99.90
57026;DHT22;43961;52.940;6.834;2023-09-30T11:57:00;21.80;99.90
57026;DHT22;43961;52.940;6.834;2023-09-30T11:59:26;21.90;99.90
57026;DHT22;43961;52.940;6.834;2023-09-30T12:01:51;22.00;99.90
57026;DHT22;43961;52.940;6.834;2023-09-30T12:04:18;21.90;99.90
57026;DHT22;43961;52.940;6.834;2023-09-30T12:06:48;21.90;99.90
57026;DHT22;43961;52.940;6.834;2023-09-30T12:09:17;21.90;99.90
57026;DHT22;43961;52.940;6.834;2023-09-30T12:11:48;21.80;99.90
57026;DHT22;43961;52.940;6.834;2023-09-30T12:14:14;21.80;99.90
57026;DHT22;43961;52.940;6.834;2023-09-30T12:16:41;21.70;99.90
57026;DHT22;43961;52.940;6.834;2023-09-30T12:19:07;21.70;99.90
57026;DHT22;43961;52.940;6.834;2023-09-30T12:21:33;21.70;99.90
57026;DHT22;43961;52.940;6.834;2023-09-30T12:24:01;21.70;99.90
57026;DHT22;43961;52.940;6.834;2023-09-30T12:26:29;21.70;99.90
57026;DHT22;43961;52.940;6.834;2023-09-30T12:28:56;21.70;99.90
57026;DHT22;43961;52.940;6.834;2023-09-30T12:31:22;21.70;99.90
57026;DHT22;43961;52.940;6.834;2023-09-30T12:33:48;21.60;99.90
57026;DHT22;43961;52.940;6.834;2023-09-30T12:36:17;21.50;99.90
57026;DHT22;43961;52.940;6.834;2023-09-30T12:38:43;21.40;99.90
57026;DHT22;43961;52.940;6.834;2023-09-30T12:41:09;21.40;99.90
57026;DHT22;43961;52.940;6.834;2023-09-30T12:43:35;21.40;99.90
57026;DHT22;43961;52.940;6.834;2023-09-30T12:46:01;21.40;99.90
57026;DHT22;43961;52.940;6.834;2023-09-30T12:48:26;21.30;99.90
57026;DHT22;43961;52.940;6.834;2023-09-30T12:50:52;21.30;99.90
57026;DHT22;43961;52.940;6.834;2023-09-30T12:53:18;21.20;99.90
57026;DHT22;43961;52.940;6.834;2023-09-30T12:55:43;21.00;99.90
57026;DHT22;43961;52.940;6.834;2023-09-30T12:58:11;20.90;99.90
57026;DHT22;43961;52.940;6.834;2023-09-30T13:00:36;20.80;99.90
57026;DHT22;43961;52.940;6.834;2023-09-30T13:03:02;20.80;99.90
57026;DHT22;43961;52.940;6.834;2023-09-30T13:05:28;20.70;99.90
57026;DHT22;43961;52.940;6.834;2023-09-30T13:07:57;20.70;99.90
57026;DHT22;43961;52.940;6.834;2023-09-30T13:10:23;20.70;99.90
57026;DHT22;43961;52.940;6.834;2023-09-30T13:12:49;20.70;99.90
57026;DHT22;43961;52.940;6.834;2023-09-30T13:15:16;20.80;99.90
57026;DHT22;43961;52.940;6.834;2023-09-30T13:17:42;20.90;99.90
57026;DHT22;43961;52.940;6.834;2023-09-30T13:20:09;20.90;99.90
57026;DHT22;43961;52.940;6.834;2023-09-30T13:22:38;20.90;99.90
57026;DHT22;43961;52.940;6.834;2023-09-30T13:25:05;21.00;99.90
57026;DHT22;43961;52.940;6.834;2023-09-30T13:27:31;21.00;99.90
57026;DHT22;43961;52.940;6.834;2023-09-30T13:29:57;21.10;99.90
57026;DHT22;43961;52.940;6.834;2023-09-30T13:32:24;21.10;99.90
57026;DHT22;43961;52.940;6.834;2023-09-30T13:34:53;21.20;99.90
57026;DHT22;43961;52.940;6.834;2023-09-30T13:37:19;21.20;99.90
57026;DHT22;43961;52.940;6.834;2023-09-30T13:39:45;21.20;99.90
57026;DHT22;43961;52.940;6.834;2023-09-30T13:42:11;21.10;99.90
57026;DHT22;43961;52.940;6.834;2023-09-30T13:44:37;21.10;99.90
57026;DHT22;43961;52.940;6.834;2023-09-30T13:47:03;21.10;99.90
57026;DHT22;43961;52.940;6.834;2023-09-30T13:49:28;21.10;99.90
57026;DHT22;43961;52.940;6.834;2023-09-30T13:51:56;21.10;99.90
57026;DHT22;43961;52.940;6.834;2023-09-30T13:54:21;21.10;99.90
57026;DHT22;43961;52.940;6.834;2023-09-30T13:56:47;21.10;99.90
57026;DHT22;43961;52.940;6.834;2023-09-30T13:59:13;21.10;99.90
57026;DHT22;43961;52.940;6.834;2023-09-30T14:01:39;21.20;99.90
57026;DHT22;43961;52.940;6.834;2023-09-30T14:04:07;21.10;99.90
57026;DHT22;43961;52.940;6.834;2023-09-30T14:06:32;21.10;99.90
57026;DHT22;43961;52.940;6.834;2023-09-30T14:08:58;21.10;99.90
57026;DHT22;43961;52.940;6.834;2023-09-30T14:11:24;21.10;99.90
57026;DHT22;43961;52.940;6.834;2023-09-30T14:13:50;21.00;99.90
57026;DHT22;43961;52.940;6.834;2023-09-30T14:16:16;21.00;99.90
57026;DHT22;43961;52.940;6.834;2023-09-30T14:18:41;21.00;99.90
57026;DHT22;43961;52.940;6.834;2023-09-30T14:21:08;21.00;99.90
57026;DHT22;43961;52.940;6.834;2023-09-30T14:23:34;21.00;99.90
57026;DHT22;43961;52.940;6.834;2023-09-30T14:26:00;21.00;99.90
57026;DHT22;43961;52.940;6.834;2023-09-30T14:28:26;20.90;99.90
57026;DHT22;43961;52.940;6.834;2023-09-30T14:30:52;20.80;99.90
57026;DHT22;43961;52.940;6.834;2023-09-30T14:33:18;20.70;99.90
57026;DHT22;43961;52.940;6.834;2023-09-30T14:35:47;20.60;99.90
57026;DHT22;43961;52.940;6.834;2023-09-30T14:38:13;20.60;99.90
57026;DHT22;43961;52.940;6.834;2023-09-30T14:40:40;20.60;99.90
57026;DHT22;43961;52.940;6.834;2023-09-30T14:43:09;20.50;99.90
57026;DHT22;43961;52.940;6.834;2023-09-30T14:45:41;20.40;99.90
57026;DHT22;43961;52.940;6.834;2023-09-30T14:48:08;20.40;99.90
57026;DHT22;43961;52.940;6.834;2023-09-30T14:50:35;20.30;99.90
57026;DHT22;43961;52.940;6.834;2023-09-30T14:53:02;20.20;99.90
57026;DHT22;43961;52.940;6.834;2023-09-30T14:55:30;20.10;99.90
57026;DHT22;43961;52.940;6.834;2023-09-30T14:57:56;20.10;99.90
57026;DHT22;43961;52.940;6.834;2023-09-30T15:00:22;20.00;99.90
57026;DHT22;43961;52.940;6.834;2023-09-30T15:02:50;19.80;99.90
57026;DHT22;43961;52.940;6.834;2023-09-30T15:05:16;19.80;99.90
57026;DHT22;43961;52.940;6.834;2023-09-30T15:07:43;19.70;99.90
57026;DHT22;43961;52.940;6.834;2023-09-30T15:10:09;19.70;99.90
57026;DHT22;43961;52.940;6.834;2023-09-30T15:12:35;19.70;99.90
57026;DHT22;43961;52.940;6.834;2023-09-30T15:15:01;19.70;99.90
57026;DHT22;43961;52.940;6.834;2023-09-30T15:17:27;19.70;99.90
57026;DHT22;43961;52.940;6.834;2023-09-30T15:19:55;19.70;99.90
57026;DHT22;43961;52.940;6.834;2023-09-30T15:22:21;19.70;99.90
57026;DHT22;43961;52.940;6.834;2023-09-30T15:24:46;19.60;99.90
57026;DHT22;43961;52.940;6.834;2023-09-30T15:27:12;19.70;99.90
57026;DHT22;43961;52.940;6.834;2023-09-30T15:29:38;19.60;99.90
57026;DHT22;43961;52.940;6.834;2023-09-30T15:32:04;19.60;99.90
57026;DHT22;43961;52.940;6.834;2023-09-30T15:34:30;19.60;99.90
57026;DHT22;43961;52.940;6.834;2023-09-30T15:36:56;19.60;99.90
57026;DHT22;43961;52.940;6.834;2023-09-30T15:39:22;19.50;99.90
57026;DHT22;43961;52.940;6.834;2023-09-30T15:41:48;19.60;99.90
57026;DHT22;43961;52.940;6.834;2023-09-30T15:44:14;19.50;99.90
57026;DHT22;43961;52.940;6.834;2023-09-30T15:46:39;19.50;99.90
57026;DHT22;43961;52.940;6.834;2023-09-30T15:49:05;19.40;99.90
57026;DHT22;43961;52.940;6.834;2023-09-30T15:51:31;19.40;99.90
57026;DHT22;43961;52.940;6.834;2023-09-30T15:53:56;19.30;99.90
57026;DHT22;43961;52.940;6.834;2023-09-30T15:56:23;19.30;99.90
57026;DHT22;43961;52.940;6.834;2023-09-30T15:58:48;19.20;99.90
57026;DHT22;43961;52.940;6.834;2023-09-30T16:01:14;19.10;99.90